Time;durP1;ratioP1;P1;durP2;ratioP2;P2;SDS_P1;SDS_P2;PMS_P1;PMS_P2;Temp;Humidity;BMP_temperature;BMP_pressure;BME280_temperature;BME280_humidity;BME280_pressure;Samples;Min_cycle;Max_cycle;Signal;HPM_P1;HPM_P2
2022/08/12 00:43:26;;;;;;;;;16.00;15.67;;;;;28.49;27.78;101121.25;5074481;28;45477;-66
2022/08/12 00:48:40;;;;;;;;;30.33;26.00;;;;;28.52;27.58;101123.72;5065795;28;45351;-70
2022/08/12 00:51:08;;;;;;;;;21.33;20.33;;;;;28.33;28.06;101119.56;5052699;28;45400;-68
2022/08/12 00:53:35;;;;;;;;;19.33;19.33;;;;;28.33;27.97;101118.66;5073918;28;48137;-67
2022/08/12 00:56:04;;;;;;;;;17.00;16.00;;;;;28.35;27.84;101122.13;5073745;28;46485;-70
2022/08/12 00:58:31;;;;;;;;;16.33;16.33;;;;;28.34;28.29;101115.88;5074392;28;45469;-66
2022/08/12 01:01:03;;;;;;;;;14.33;14.33;;;;;28.26;28.13;101096.69;5074710;28;45469;-65
2022/08/12 01:12:14;;;;;;;;;13.00;12.00;;;;;28.28;27.76;101096.56;5074324;28;45468;-65
2022/08/12 01:14:41;;;;;;;;;12.33;12.33;;;;;28.27;28.10;101101.09;5074235;28;45450;-63
2022/08/12 01:17:07;;;;;;;;;14.33;14.33;;;;;28.19;28.10;101114.22;5074317;28;45789;-66
2022/08/12 01:19:32;;;;;;;;;10.67;10.67;;;;;28.17;28.36;101113.47;5073870;28;45583;-65
2022/08/12 01:22:36;;;;;;;;;12.33;12.33;;;;;28.16;28.13;101110.84;5074326;28;45445;-65
2022/08/12 01:25:11;;;;;;;;;11.67;11.00;;;;;28.03;28.52;101117.06;5073402;28;45430;-66
2022/08/12 01:27:39;;;;;;;;;15.67;13.00;;;;;27.91;28.67;101099.00;5073498;28;45838;-68
2022/08/12 01:30:09;;;;;;;;;11.50;11.50;;;;;28.04;28.42;101118.75;5073070;28;45292;-65
2022/08/12 01:32:38;;;;;;;;;12.00;11.67;;;;;28.08;27.91;101114.06;5073416;27;45425;-67
2022/08/12 01:35:09;;;;;;;;;12.00;12.00;;;;;27.97;28.51;101111.19;5073399;28;45405;-65
2022/08/12 01:37:56;;;;;;;;;17.33;13.00;;;;;27.99;28.46;101110.13;5073900;28;45764;-68
2022/08/12 01:40:30;;;;;;;;;13.00;11.33;;;;;27.98;28.43;101097.66;5060669;28;45366;-67
2022/08/12 01:43:04;;;;;;;;;11.00;11.00;;;;;27.96;28.42;101114.88;5074040;28;45331;-70
2022/08/12 01:45:31;;;;;;;;;12.67;12.67;;;;;27.91;28.24;101121.41;5074294;28;45658;-66
2022/08/12 01:48:18;;;;;;;;;11.33;11.33;;;;;27.95;28.38;101105.91;5073436;28;46624;-70
2022/08/12 01:51:27;;;;;;;;;13.67;13.67;;;;;27.86;28.53;101112.78;5072237;28;45527;-70
2022/08/12 01:54:04;;;;;;;;;12.67;12.00;;;;;27.77;28.63;101099.88;4990101;28;46129;-68
2022/08/12 01:56:47;;;;;;;;;11.67;11.67;;;;;27.86;28.54;101112.78;4991085;28;46038;-67
2022/08/12 02:02:10;;;;;;;;;11.33;11.33;;;;;27.69;28.70;101081.53;5072901;28;45502;-68
2022/08/12 02:11:28;;;;;;;;;12.67;11.67;;;;;27.70;28.46;101101.22;5056164;28;45447;-63
2022/08/12 02:13:54;;;;;;;;;13.33;12.67;;;;;27.72;28.38;101093.06;5059379;28;46226;-64
2022/08/12 02:16:55;;;;;;;;;12.00;12.00;;;;;27.77;28.27;101090.94;5040201;28;45421;-70
2022/08/12 02:19:53;;;;;;;;;12.00;11.67;;;;;27.66;28.78;101091.63;5014344;28;45310;-65
2022/08/12 02:22:37;;;;;;;;;13.00;12.67;;;;;27.49;28.77;101063.97;5075092;28;45549;-64
2022/08/12 02:25:14;;;;;;;;;12.33;11.67;;;;;27.62;28.61;101085.59;5061639;28;45367;-64
2022/08/12 02:27:48;;;;;;;;;10.67;10.67;;;;;27.47;29.12;101084.72;5072974;28;45311;-64
2022/08/12 02:30:20;;;;;;;;;12.00;11.33;;;;;27.52;28.71;101089.81;5074581;28;45528;-65
2022/08/12 02:32:47;;;;;;;;;13.00;13.00;;;;;27.33;29.07;101081.16;5073234;28;45368;-66
2022/08/12 02:35:19;;;;;;;;;13.33;13.00;;;;;27.32;29.27;101088.38;5076767;28;45490;-65
2022/08/12 02:37:48;;;;;;;;;13.00;13.00;;;;;27.26;29.13;101095.03;5077107;27;46017;-63
2022/08/12 02:40:16;;;;;;;;;14.00;11.33;;;;;27.22;29.36;101087.25;5073347;27;45552;-65
2022/08/12 02:43:11;;;;;;;;;10.67;10.67;;;;;27.31;28.98;101089.31;5061204;28;45363;-67
2022/08/12 02:45:52;;;;;;;;;11.00;11.00;;;;;27.37;29.19;101091.66;5080161;28;45436;-66
2022/08/12 02:48:29;;;;;;;;;11.00;11.00;;;;;27.40;28.62;101077.13;5077035;28;45581;-64
2022/08/12 02:51:00;;;;;;;;;11.67;11.67;;;;;27.42;28.54;101081.44;5077216;27;45548;-64
2022/08/12 02:53:27;;;;;;;;;11.33;11.00;;;;;27.48;28.58;101080.22;5077123;27;45984;-65
2022/08/12 02:55:53;;;;;;;;;12.00;11.67;;;;;27.50;28.34;101083.66;5077009;28;45899;-65
2022/08/12 02:58:19;;;;;;;;;14.33;13.33;;;;;27.49;29.38;101080.09;5076574;27;45529;-65
2022/08/12 03:00:45;;;;;;;;;11.00;11.00;;;;;27.42;29.19;101072.53;5081002;27;45435;-64
2022/08/12 03:03:14;;;;;;;;;16.67;13.00;;;;;27.41;28.74;101076.19;5079317;28;45454;-66
2022/08/12 03:05:57;;;;;;;;;13.00;12.33;;;;;27.19;28.71;101052.41;5076878;28;45314;-65
2022/08/12 03:08:29;;;;;;;;;12.67;11.00;;;;;27.08;29.16;101058.50;5079887;28;45514;-66
2022/08/12 03:11:09;;;;;;;;;11.00;11.00;;;;;27.19;29.36;101080.22;5077501;27;45410;-64
2022/08/12 03:13:38;;;;;;;;;11.00;11.00;;;;;27.18;29.32;101083.81;5077222;28;46260;-65
2022/08/12 03:16:04;;;;;;;;;11.33;9.67;;;;;27.08;29.39;101059.34;5068519;28;45561;-65
2022/08/12 03:18:31;;;;;;;;;10.67;10.33;;;;;27.28;29.51;101082.31;5072562;27;45450;-62
2022/08/12 03:21:00;;;;;;;;;12.00;12.00;;;;;27.21;29.42;101088.19;5078552;28;45512;-65
2022/08/12 03:23:28;;;;;;;;;11.33;11.33;;;;;27.21;29.87;101080.97;5058493;28;46345;-65
2022/08/12 03:25:57;;;;;;;;;12.67;10.00;;;;;27.25;29.48;101084.34;5076639;28;45915;-64
2022/08/12 03:31:08;;;;;;;;;11.67;11.67;;;;;27.12;29.63;101067.22;5069116;28;45266;-65
2022/08/12 03:33:38;;;;;;;;;11.33;9.33;;;;;27.24;29.15;101090.66;5076853;27;46162;-65
2022/08/12 03:36:07;;;;;;;;;11.67;11.67;;;;;27.18;29.16;101089.22;5075690;27;45922;-65
2022/08/12 03:38:37;;;;;;;;;11.00;11.00;;;;;27.05;29.42;101075.66;5076446;27;45431;-65
2022/08/12 04:00:50;;;;;;;;;12.33;11.67;;;;;26.80;30.08;101088.88;5080279;28;45441;-66
2022/08/12 04:06:01;;;;;;;;;11.33;11.33;;;;;26.81;29.51;101063.72;5077831;28;45500;-67
2022/08/12 04:08:27;;;;;;;;;11.33;11.33;;;;;26.95;29.40;101081.69;5076045;28;45473;-68
2022/08/12 04:13:39;;;;;;;;;12.33;11.00;;;;;26.92;29.42;101069.31;5063848;27;45764;-65
2022/08/12 04:16:09;;;;;;;;;12.00;12.00;;;;;27.01;29.51;101074.13;5065161;28;45683;-64
2022/08/12 04:18:34;;;;;;;;;12.67;12.67;;;;;26.94;29.69;101063.84;5051552;28;45815;-64
2022/08/12 04:21:01;;;;;;;;;12.67;11.33;;;;;26.97;30.07;101074.41;5073925;28;45613;-64
2022/08/12 04:23:28;;;;;;;;;12.33;12.33;;;;;26.94;29.76;101083.53;5077707;28;45529;-64
2022/08/12 04:25:54;;;;;;;;;10.00;10.00;;;;;26.95;29.72;101085.25;5071418;27;46708;-64
2022/08/12 04:28:27;;;;;;;;;12.00;12.00;;;;;26.86;29.50;101061.59;5074745;27;45351;-64
2022/08/12 04:30:55;;;;;;;;;11.33;11.00;;;;;26.96;29.58;101075.38;5075242;27;45520;-68
2022/08/12 04:33:20;;;;;;;;;11.67;11.67;;;;;26.99;29.70;101078.72;5057389;28;45989;-65
2022/08/12 04:35:46;;;;;;;;;11.33;11.33;;;;;26.99;29.21;101081.41;5075206;28;45335;-68
2022/08/12 04:38:12;;;;;;;;;11.33;11.33;;;;;27.00;29.48;101080.47;5075354;28;45393;-65
2022/08/12 04:40:39;;;;;;;;;10.67;10.67;;;;;26.99;29.31;101085.94;5075712;27;45738;-65
2022/08/12 04:43:05;;;;;;;;;12.67;12.67;;;;;26.88;29.66;101073.13;5076565;28;45462;-66
2022/08/12 04:45:33;;;;;;;;;14.33;13.67;;;;;26.98;29.68;101086.88;5080460;27;45557;-66
2022/08/12 04:48:00;;;;;;;;;12.33;12.33;;;;;26.97;29.55;101087.84;5079728;28;45414;-64
2022/08/12 04:50:27;;;;;;;;;12.00;12.00;;;;;26.85;29.40;101071.50;5076695;28;45458;-68
2022/08/12 04:52:54;;;;;;;;;10.33;10.33;;;;;26.94;29.38;101082.66;5075210;28;45331;-66
2022/08/12 04:55:21;;;;;;;;;12.67;12.67;;;;;26.89;29.52;101079.41;5078069;28;46357;-65
2022/08/12 04:57:47;;;;;;;;;14.67;13.00;;;;;26.88;29.65;101078.50;5074688;27;45618;-64
2022/08/12 05:00:15;;;;;;;;;12.00;12.00;;;;;26.96;29.80;101095.06;5074967;28;45382;-65
2022/08/12 05:02:41;;;;;;;;;12.33;12.33;;;;;26.90;29.83;101083.81;5074877;28;45620;-65
2022/08/12 05:05:14;;;;;;;;;12.67;12.67;;;;;26.97;29.81;101094.06;5073748;28;45483;-69
2022/08/12 05:07:40;;;;;;;;;11.67;11.67;;;;;26.98;29.45;101094.94;5074582;27;45439;-66
2022/08/12 05:10:06;;;;;;;;;13.33;12.00;;;;;26.99;29.89;101094.00;5074544;28;45430;-66
2022/08/12 05:12:41;;;;;;;;;13.00;13.00;;;;;26.84;29.47;101061.72;5076601;28;45386;-66
2022/08/12 05:15:07;;;;;;;;;13.33;11.33;;;;;26.95;29.38;101090.63;5070132;27;48029;-67
2022/08/12 05:17:33;;;;;;;;;11.67;11.67;;;;;26.93;29.45;101088.97;5063680;28;45422;-66
2022/08/12 05:19:59;;;;;;;;;9.33;9.33;;;;;26.93;29.64;101089.84;5060454;28;45407;-65
2022/08/12 05:22:26;;;;;;;;;13.67;13.00;;;;;26.96;29.28;101100.44;5063573;28;45451;-66
2022/08/12 05:24:52;;;;;;;;;13.33;11.33;;;;;27.01;29.56;101110.91;5059610;28;45504;-65
2022/08/12 05:27:17;;;;;;;;;12.67;11.00;;;;;27.06;29.25;101106.97;5068078;27;45521;-65
2022/08/12 05:29:48;;;;;;;;;12.67;11.33;;;;;27.11;29.40;101111.19;5068489;28;45581;-65
2022/08/12 05:32:19;;;;;;;;;11.00;9.67;;;;;27.11;29.34;101092.38;5064395;28;45677;-66
2022/08/12 05:34:47;;;;;;;;;12.67;11.33;;;;;27.22;29.22;101108.75;5066956;28;45365;-65
2022/08/12 05:37:13;;;;;;;;;10.33;10.00;;;;;27.24;29.15;101096.94;5055808;28;45610;-66
2022/08/12 05:39:39;;;;;;;;;11.33;11.33;;;;;27.27;29.04;101098.56;5060229;28;45451;-65
2022/08/12 05:42:05;;;;;;;;;12.33;12.33;;;;;27.28;29.02;101102.97;5074804;28;45428;-68
2022/08/12 05:44:30;;;;;;;;;13.00;13.00;;;;;27.37;30.12;101109.63;5074362;27;45576;-68
2022/08/12 05:46:56;;;;;;;;;11.33;11.00;;;;;27.15;30.03;101091.25;5074740;27;45436;-65
2022/08/12 05:49:21;;;;;;;;;11.67;11.00;;;;;27.27;29.77;101099.44;5074092;27;45778;-64
2022/08/12 05:51:47;;;;;;;;;11.33;11.33;;;;;27.42;29.31;101113.72;5074388;28;45668;-65
2022/08/12 05:54:13;;;;;;;;;11.00;11.00;;;;;27.42;28.99;101091.34;5074708;27;46179;-68
2022/08/12 05:56:40;;;;;;;;;15.00;12.33;;;;;27.54;29.07;101104.03;5073947;28;45300;-70
2022/08/12 05:59:07;;;;;;;;;11.67;11.67;;;;;27.66;28.98;101102.38;5074132;28;45520;-67
2022/08/12 06:01:33;;;;;;;;;10.00;10.00;;;;;27.76;28.64;101103.50;5074288;27;45455;-67
2022/08/12 06:03:59;;;;;;;;;13.00;12.00;;;;;27.82;28.72;101113.88;5074126;28;45478;-65
2022/08/12 06:06:25;;;;;;;;;12.00;11.67;;;;;27.64;28.78;101085.47;5078092;27;45394;-66
2022/08/12 06:08:52;;;;;;;;;11.33;11.33;;;;;27.87;28.71;101103.72;5076807;28;45425;-65
2022/08/12 06:11:22;;;;;;;;;12.33;12.33;;;;;27.95;28.58;101099.66;5073978;28;45417;-65
2022/08/12 06:13:49;;;;;;;;;14.00;13.67;;;;;28.05;28.10;101098.13;5077075;28;45615;-64
2022/08/12 06:16:19;;;;;;;;;9.33;8.00;;;;;28.04;28.32;101091.84;5062507;28;45823;-66
2022/08/12 06:18:44;;;;;;;;;13.00;13.00;;;;;28.12;28.37;101107.53;5071604;27;45787;-65
2022/08/12 06:21:13;;;;;;;;;11.67;11.67;;;;;28.19;27.99;101097.19;5075201;28;45583;-65
2022/08/12 06:23:39;;;;;;;;;10.67;10.67;;;;;28.17;27.91;101075.75;5078119;28;45529;-70
2022/08/12 06:26:11;;;;;;;;;13.33;12.00;;;;;28.28;27.88;101075.03;5075075;27;45370;-66
2022/08/12 06:28:39;;;;;;;;;16.00;16.00;;;;;28.42;27.32;101101.91;5073719;28;45390;-67
2022/08/12 06:31:05;;;;;;;;;11.00;11.00;;;;;28.45;27.15;101098.13;5078138;28;45346;-67
2022/08/12 06:33:31;;;;;;;;;24.00;19.00;;;;;28.46;27.68;101099.91;5078128;28;45605;-67
2022/08/12 06:35:57;;;;;;;;;16.33;12.00;;;;;28.44;27.48;101093.72;5075930;28;45478;-65
2022/08/12 06:38:25;;;;;;;;;13.33;13.33;;;;;28.56;27.64;101097.44;5074038;28;45545;-67
2022/08/12 06:43:45;;;;;;;;;12.67;12.67;;;;;28.60;27.01;101082.81;5073384;27;45563;-66
2022/08/12 06:46:12;;;;;;;;;13.00;12.33;;;;;28.69;27.67;101109.13;5072268;27;45796;-65
2022/08/12 06:48:41;;;;;;;;;12.00;12.00;;;;;28.73;27.41;101106.09;5073971;28;45461;-64
2022/08/12 06:51:07;;;;;;;;;12.00;12.00;;;;;28.73;26.91;101106.09;5073842;27;45370;-64
2022/08/12 06:53:33;;;;;;;;;14.00;14.00;;;;;28.77;26.39;101114.84;5076620;28;45907;-65
2022/08/12 06:56:00;;;;;;;;;14.67;14.67;;;;;28.69;25.88;101101.91;5073783;28;45444;-67
2022/08/12 06:58:30;;;;;;;;;14.67;11.33;;;;;28.70;26.07;101108.16;5074160;28;45484;-66
2022/08/12 07:00:58;;;;;;;;;13.00;11.67;;;;;28.68;25.69;101108.25;5074490;28;45426;-66
2022/08/12 07:03:27;;;;;;;;;15.00;15.00;;;;;28.52;26.26;101104.88;5075523;28;45782;-66
2022/08/12 07:06:02;;;;;;;;;14.00;13.00;;;;;28.36;26.33;101105.03;5073899;27;45429;-64
2022/08/12 07:08:31;;;;;;;;;14.33;13.67;;;;;28.31;26.60;101099.94;5059785;27;45594;-66
2022/08/12 07:11:00;;;;;;;;;16.33;14.67;;;;;28.26;26.39;101099.38;5060400;28;45456;-65
2022/08/12 07:13:41;;;;;;;;;13.33;11.67;;;;;28.19;26.54;101072.94;5065906;28;45461;-65
2022/08/12 07:16:08;;;;;;;;;11.00;11.00;;;;;28.49;26.71;101102.38;5037072;28;45409;-66
2022/08/12 07:18:35;;;;;;;;;14.00;14.00;;;;;28.37;26.60;101082.50;5062618;28;45430;-66
2022/08/12 07:21:03;;;;;;;;;12.33;11.67;;;;;28.47;26.80;101085.44;5063637;28;45601;-65
2022/08/12 07:23:32;;;;;;;;;13.00;13.00;;;;;28.60;26.33;101099.84;5052665;28;46727;-64
2022/08/12 07:25:57;;;;;;;;;14.00;12.00;;;;;28.62;26.51;101095.22;5045138;28;45831;-65
2022/08/12 07:28:26;;;;;;;;;13.00;12.00;;;;;28.69;26.24;101098.34;5058928;28;45574;-65
2022/08/12 07:30:55;;;;;;;;;11.33;11.00;;;;;28.63;26.58;101094.22;5072901;28;45326;-66
2022/08/12 07:33:23;;;;;;;;;13.67;13.67;;;;;28.75;26.21;101096.06;5069089;27;45507;-64
2022/08/12 07:35:52;;;;;;;;;10.33;10.00;;;;;28.80;26.08;101090.38;5070857;28;45665;-65
2022/08/12 07:38:24;;;;;;;;;12.67;12.67;;;;;28.78;26.42;101096.84;5071913;27;45477;-65
2022/08/12 07:41:07;;;;;;;;;10.00;9.00;;;;;28.77;26.40;101100.50;5070152;28;45499;-66
2022/08/12 07:43:35;;;;;;;;;14.33;12.33;;;;;28.73;25.98;101092.63;5074040;28;46128;-65
2022/08/12 07:46:04;;;;;;;;;15.33;14.00;;;;;28.80;26.17;101086.81;5072267;28;45320;-66
2022/08/12 07:48:39;;;;;;;;;14.00;14.00;;;;;28.85;25.81;101092.75;5070726;28;45423;-65
2022/08/12 07:51:06;;;;;;;;;14.00;11.67;;;;;28.86;25.96;101089.09;5065624;28;45572;-64
2022/08/12 07:53:32;;;;;;;;;18.00;14.33;;;;;28.91;25.93;101082.41;5064749;28;46093;-63
2022/08/12 07:55:58;;;;;;;;;14.00;14.00;;;;;28.93;25.54;101090.41;5068168;28;45909;-65
2022/08/12 07:58:24;;;;;;;;;14.00;13.33;;;;;28.84;26.00;101091.03;5056004;28;46341;-66
2022/08/12 08:00:56;;;;;;;;;17.33;16.33;;;;;28.83;25.61;101095.56;5064858;28;46078;-69
2022/08/12 08:03:24;;;;;;;;;15.67;15.00;;;;;28.81;25.70;101073.25;5055754;28;45957;-69
2022/08/12 08:05:51;;;;;;;;;15.00;14.67;;;;;29.02;25.58;101080.78;5055857;28;46087;-66
2022/08/12 08:08:21;;;;;;;;;16.00;15.33;;;;;29.14;25.76;101098.84;5055911;28;45633;-66
2022/08/12 08:10:50;;;;;;;;;14.00;14.00;;;;;29.14;25.55;101101.56;5055684;28;45339;-66
2022/08/12 08:13:17;;;;;;;;;14.67;13.00;;;;;29.06;26.17;101088.56;5062814;28;45963;-66
2022/08/12 08:15:48;;;;;;;;;11.00;11.00;;;;;29.00;25.96;101085.41;5055491;28;45542;-67
2022/08/12 08:18:15;;;;;;;;;14.33;14.33;;;;;29.06;26.18;101082.31;5057359;28;45496;-65
2022/08/12 08:20:44;;;;;;;;;13.33;13.33;;;;;29.16;26.10;101095.06;5057364;28;45542;-65
2022/08/12 08:23:17;;;;;;;;;12.67;12.33;;;;;29.31;25.86;101101.22;5058925;27;46237;-65
2022/08/12 08:25:44;;;;;;;;;13.00;12.67;;;;;29.39;25.43;101104.22;5055271;28;45437;-67
2022/08/12 08:28:13;;;;;;;;;15.00;13.00;;;;;29.42;25.31;101108.53;5062090;28;45423;-66
2022/08/12 08:30:42;;;;;;;;;14.67;12.67;;;;;29.43;25.47;101112.09;5037798;28;45737;-68
2022/08/12 08:33:09;;;;;;;;;13.33;13.00;;;;;29.36;25.33;101095.50;5057611;28;45566;-66
2022/08/12 08:35:38;;;;;;;;;12.00;12.00;;;;;29.54;25.54;101104.97;5063758;28;45535;-70
2022/08/12 08:38:08;;;;;;;;;11.67;11.67;;;;;29.64;25.25;101105.16;5059316;28;45586;-66
2022/08/12 08:43:27;;;;;;;;;14.00;10.67;;;;;29.64;25.91;101099.75;5058347;27;45450;-64
2022/08/12 08:45:56;;;;;;;;;15.00;14.00;;;;;29.64;25.43;101097.06;5055049;28;45907;-69
2022/08/12 08:48:30;;;;;;;;;12.00;12.00;;;;;29.69;25.13;101099.47;5069091;28;45422;-65
2022/08/12 08:50:56;;;;;;;;;14.33;12.33;;;;;29.75;25.32;101102.56;5058839;28;45310;-68
2022/08/12 08:53:21;;;;;;;;;14.00;12.33;;;;;29.83;25.36;101104.72;5055067;28;45649;-65
2022/08/12 08:55:48;;;;;;;;;16.00;13.00;;;;;29.86;25.54;101104.47;5054673;28;45390;-64
2022/08/12 08:58:13;;;;;;;;;18.00;13.33;;;;;29.88;25.32;101096.28;5054906;28;45418;-65
2022/08/12 09:00:39;;;;;;;;;11.67;10.67;;;;;29.97;25.32;101101.88;5055532;28;45339;-65
2022/08/12 09:03:06;;;;;;;;;14.00;12.00;;;;;30.09;25.18;101096.50;5054638;28;45363;-67
2022/08/12 09:05:31;;;;;;;;;12.67;12.67;;;;;30.02;25.07;101088.03;5058116;28;45451;-64
2022/08/12 09:08:01;;;;;;;;;14.00;13.33;;;;;30.10;24.93;101099.09;5068689;27;45277;-65
2022/08/12 09:10:26;;;;;;;;;11.00;11.00;;;;;30.16;24.55;101098.66;5055144;28;45426;-67
2022/08/12 09:15:38;;;;;;;;;12.67;12.67;;;;;30.13;24.68;101092.59;5054799;28;45489;-68
2022/08/12 09:18:10;;;;;;;;;11.67;11.00;;;;;30.22;25.14;101097.31;5066921;27;45581;-65
2022/08/12 09:20:37;;;;;;;;;15.00;12.67;;;;;30.26;24.02;101101.56;5056321;28;45494;-68
2022/08/12 09:23:06;;;;;;;;;14.00;13.00;;;;;30.29;24.60;101084.25;5073955;28;46228;-66
2022/08/12 09:25:33;;;;;;;;;11.33;11.00;;;;;30.25;25.03;101067.34;5065019;28;45490;-66
2022/08/12 09:27:59;;;;;;;;;10.50;10.50;;;;;30.40;24.46;101079.75;5064478;28;45630;-69
2022/08/12 09:30:25;;;;;;;;;14.50;13.50;;;;;30.47;24.53;101087.38;5059132;28;45617;-66
2022/08/12 09:32:51;;;;;;;;;12.25;12.00;;;;;30.45;24.47;101078.56;5053919;28;46142;-66
2022/08/12 09:35:22;;;;;;;;;11.00;11.00;;;;;30.46;24.72;101069.44;5053184;28;45662;-65
2022/08/12 09:37:50;;;;;;;;;51.67;43.33;;;;;30.53;24.92;101063.44;5053526;28;45363;-67
2022/08/12 09:40:18;;;;;;;;;66.00;53.00;;;;;30.75;24.80;101089.72;5053912;28;45714;-65
2022/08/12 09:45:32;;;;;;;;;57.25;46.50;;;;;30.91;24.13;101069.59;5028853;28;45573;-66
2022/08/12 09:48:07;;;;;;;;;26.00;25.00;;;;;31.03;24.28;101079.44;5060023;28;45352;-64
2022/08/12 09:50:35;;;;;;;;;11.00;10.25;;;;;31.12;23.94;101070.59;5035718;28;45612;-66
2022/08/12 09:53:04;;;;;;;;;11.50;11.50;;;;;31.14;24.91;101067.78;5057411;28;45438;-65
2022/08/12 09:55:31;;;;;;;;;12.50;12.50;;;;;31.19;23.71;101073.69;5056827;28;45628;-68
2022/08/12 09:57:57;;;;;;;;;12.50;12.50;;;;;31.14;23.42;101056.97;5053784;28;45596;-72
2022/08/12 10:00:24;;;;;;;;;10.00;10.00;;;;;31.14;24.01;101044.28;5053106;28;45589;-67
2022/08/12 10:03:09;;;;;;;;;10.50;10.50;;;;;31.22;24.29;101047.22;5053638;28;45465;-65
2022/08/12 10:05:42;;;;;;;;;10.00;10.00;;;;;31.40;23.82;101060.31;5053798;28;45434;-67
2022/08/12 10:08:10;;;;;;;;;11.50;11.25;;;;;31.38;23.20;101043.31;5053443;28;45427;-64
2022/08/12 10:13:40;;;;;;;;;12.25;11.75;;;;;31.41;23.09;101027.69;5053817;28;45512;-65
2022/08/12 10:13:41;;;;;;;;;9.75;9.25;;;;;31.57;23.23;101043.56;5061062;28;45353;-71
2022/08/12 10:16:20;;;;;;;;;13.00;11.00;;;;;31.74;22.96;101036.75;5056925;28;45613;-67
2022/08/12 10:18:53;;;;;;;;;12.75;10.00;;;;;31.64;22.80;101009.56;5057418;28;45667;-66
2022/08/12 10:21:35;;;;;;;;;10.75;10.25;;;;;31.87;21.79;101040.16;5074124;28;45466;-66
2022/08/12 10:24:08;;;;;;;;;9.25;9.25;;;;;31.87;22.12;101025.78;5053276;28;45486;-66
2022/08/12 10:29:35;;;;;;;;;10.25;10.25;;;;;32.01;21.99;101009.25;5073753;27;45459;-66
2022/08/12 10:32:05;;;;;;;;;12.00;10.75;;;;;32.16;22.12;101019.78;5073900;28;45374;-66
2022/08/12 10:34:32;;;;;;;;;10.00;10.00;;;;;32.19;21.72;101019.50;5073271;27;45543;-66
2022/08/12 10:36:59;;;;;;;;;14.25;11.00;;;;;32.23;22.05;101013.69;5045671;28;45603;-67
2022/08/12 10:39:31;;;;;;;;;10.75;10.00;;;;;32.26;21.28;101020.72;5057276;28;45512;-69
2022/08/12 10:44:41;;;;;;;;;9.25;9.00;;;;;32.32;20.75;101014.78;5059148;27;45647;-66
2022/08/12 10:47:07;;;;;;;;;11.00;8.75;;;;;32.34;20.50;101010.06;5052822;28;45489;-64
2022/08/12 10:49:33;;;;;;;;;9.25;9.25;;;;;32.29;21.03;100999.59;5052844;28;45550;-66
2022/08/12 10:52:04;;;;;;;;;9.25;9.25;;;;;32.42;21.02;101021.13;5053463;28;45982;-67
2022/08/12 10:54:30;;;;;;;;;10.00;10.00;;;;;32.52;20.76;101004.94;5052905;28;45559;-65
2022/08/12 10:56:56;;;;;;;;;9.00;9.00;;;;;32.55;20.71;101001.97;5055266;28;45557;-67
2022/08/12 10:59:23;;;;;;;;;9.75;9.00;;;;;32.39;20.48;100999.72;5057535;28;45426;-65
2022/08/12 11:01:51;;;;;;;;;9.75;9.75;;;;;32.44;20.41;101015.56;5057492;28;45465;-66
2022/08/12 11:04:17;;;;;;;;;9.75;9.75;;;;;32.41;20.62;100997.69;5059390;28;46244;-65
2022/08/12 11:06:47;;;;;;;;;8.00;8.00;;;;;32.51;20.44;101001.38;5056104;28;45385;-66
2022/08/12 11:09:17;;;;;;;;;10.50;10.50;;;;;32.63;20.53;100991.31;5058495;28;45322;-67
2022/08/12 11:11:47;;;;;;;;;13.25;11.25;;;;;32.70;20.59;100988.94;5060591;28;45600;-65
2022/08/12 11:14:16;;;;;;;;;7.75;6.50;;;;;32.90;19.92;100990.75;5056482;28;45579;-66
2022/08/12 11:16:45;;;;;;;;;9.75;8.75;;;;;32.95;19.66;100979.47;5057275;28;45358;-66
2022/08/12 11:19:13;;;;;;;;;5.50;5.50;;;;;32.86;19.30;100961.31;5076991;28;45445;-66
2022/08/12 11:21:39;;;;;;;;;9.00;9.00;;;;;33.01;19.79;100972.63;5058577;28;45501;-65
2022/08/12 11:24:06;;;;;;;;;10.00;9.25;;;;;33.05;19.60;100971.41;5076119;27;45967;-67
2022/08/12 11:26:32;;;;;;;;;8.20;8.20;;;;;33.07;19.70;100978.41;5076269;28;45487;-67
2022/08/12 11:28:57;;;;;;;;;9.25;9.25;;;;;33.12;19.83;100967.16;5065000;28;45416;-66
2022/08/12 11:31:23;;;;;;;;;9.00;9.00;;;;;33.16;19.59;100953.16;5074082;27;45607;-67
2022/08/12 11:33:49;;;;;;;;;10.00;8.75;;;;;33.29;19.76;100961.06;5065071;28;45674;-65
2022/08/12 11:36:16;;;;;;;;;9.75;9.75;;;;;33.47;19.91;100965.81;5067739;27;45481;-68
2022/08/12 11:38:41;;;;;;;;;9.00;8.75;;;;;33.43;19.60;100961.66;5065788;28;45494;-65
2022/08/12 11:41:07;;;;;;;;;9.25;9.25;;;;;33.47;19.51;100949.53;5064374;28;45490;-66
2022/08/12 11:43:33;;;;;;;;;9.75;9.75;;;;;33.45;19.52;100943.38;5071422;28;45497;-65
2022/08/12 11:45:59;;;;;;;;;10.50;10.50;;;;;33.60;19.70;100941.13;5068142;28;45484;-67
2022/08/12 11:48:25;;;;;;;;;11.75;11.75;;;;;33.69;19.58;100927.56;5070526;28;45300;-68
2022/08/12 11:50:50;;;;;;;;;10.25;8.25;;;;;33.91;18.78;100936.41;5070754;27;45569;-69
2022/08/12 11:53:16;;;;;;;;;9.50;9.25;;;;;33.90;19.08;100954.56;5069503;28;45730;-68
2022/08/12 11:55:41;;;;;;;;;9.25;9.00;;;;;34.02;18.87;100940.84;5068476;28;45536;-69
2022/08/12 11:58:07;;;;;;;;;9.75;9.25;;;;;34.09;18.64;100945.59;5067687;28;45534;-70
2022/08/12 12:00:33;;;;;;;;;9.50;9.50;;;;;34.02;18.30;100933.56;5071082;27;45474;-70
2022/08/12 12:02:58;;;;;;;;;11.50;9.50;;;;;34.06;17.97;100940.41;5063700;28;45990;-68
2022/08/12 12:05:24;;;;;;;;;8.00;8.00;;;;;34.03;18.07;100935.28;5068349;28;45498;-72
2022/08/12 12:07:49;;;;;;;;;6.75;6.75;;;;;34.20;18.57;100933.72;5065435;28;45996;-70
2022/08/12 12:10:19;;;;;;;;;8.00;8.00;;;;;34.25;18.38;100927.84;5069832;27;45766;-66
2022/08/12 12:12:45;;;;;;;;;8.00;8.00;;;;;34.35;18.39;100925.94;5070939;28;46071;-67
2022/08/12 12:15:12;;;;;;;;;7.60;7.60;;;;;34.39;18.13;100920.06;5060984;28;45495;-68
2022/08/12 12:17:40;;;;;;;;;9.20;8.00;;;;;34.42;18.09;100905.31;5069602;27;45645;-66
2022/08/12 12:20:08;;;;;;;;;7.50;7.50;;;;;34.38;18.07;100903.91;5071873;28;45829;-72
2022/08/12 12:22:39;;;;;;;;;8.75;8.50;;;;;34.48;18.24;100923.78;5066842;27;45471;-66
2022/08/12 12:25:09;;;;;;;;;10.80;10.60;;;;;34.38;18.52;100914.78;5075658;28;46080;-68
2022/08/12 12:27:46;;;;;;;;;11.50;11.00;;;;;34.49;19.47;100920.03;5049085;28;45510;-70
2022/08/12 12:30:16;;;;;;;;;10.00;9.00;;;;;34.64;19.16;100917.72;5069350;28;45410;-67
2022/08/12 12:32:42;;;;;;;;;10.50;9.75;;;;;34.64;18.58;100901.41;5064280;28;45729;-65
2022/08/12 12:35:09;;;;;;;;;9.40;9.00;;;;;34.85;18.89;100914.78;5072696;27;45977;-66
2022/08/12 12:37:58;;;;;;;;;9.00;8.20;;;;;34.84;18.27;100888.59;5061191;28;45505;-65
2022/08/12 12:40:25;;;;;;;;;9.00;8.00;;;;;35.02;17.72;100894.91;5077272;28;45307;-64
2022/08/12 12:42:51;;;;;;;;;7.25;7.25;;;;;35.21;17.36;100910.28;5070877;27;45731;-65
2022/08/12 12:45:18;;;;;;;;;9.80;9.80;;;;;35.34;17.33;100909.94;5074609;28;45403;-65
2022/08/12 12:47:59;;;;;;;;;8.50;8.00;;;;;35.44;16.98;100898.97;5072138;27;45385;-65
2022/08/12 12:50:31;;;;;;;;;9.75;9.50;;;;;35.35;16.91;100884.41;5073875;28;45492;-64
2022/08/12 12:52:57;;;;;;;;;11.00;10.00;;;;;35.30;17.52;100891.34;5072318;28;45425;-65
2022/08/12 12:55:23;;;;;;;;;7.60;7.60;;;;;35.40;17.04;100898.41;5072724;28;45342;-65
2022/08/12 12:57:49;;;;;;;;;9.80;9.80;;;;;35.30;16.90;100881.28;5071906;27;45950;-66
2022/08/12 13:00:17;;;;;;;;;9.00;9.00;;;;;35.34;17.39;100885.44;5075956;27;45477;-66
2022/08/12 13:02:51;;;;;;;;;9.00;9.00;;;;;35.53;16.97;100861.78;5064987;28;46281;-66
2022/08/12 13:05:18;;;;;;;;;7.80;7.20;;;;;35.85;17.39;100872.97;5065110;28;45496;-69
2022/08/12 13:07:44;;;;;;;;;8.20;8.20;;;;;36.05;17.29;100881.81;5061285;27;45410;-66
2022/08/12 13:10:09;;;;;;;;;8.00;8.00;;;;;36.09;16.92;100874.16;5050758;28;46023;-65